Time;durP1;ratioP1;P1;durP2;ratioP2;P2;SDS_P1;SDS_P2;PMS_P1;PMS_P2;Temp;Humidity;BMP_temperature;BMP_pressure;BME280_temperature;BME280_humidity;BME280_pressure;Samples;Min_cycle;Max_cycle;Signal;HPM_P1;HPM_P2
2021/09/06 00:00:37;;;;;;;;;;;12.40;99.90;;;;;;5054614;28;19917;-85
2021/09/06 00:03:02;;;;;;;;;;;12.30;99.90;;;;;;5063580;28;19996;-84
2021/09/06 00:05:28;;;;;;;;;;;12.30;99.90;;;;;;5053520;28;19909;-84
2021/09/06 00:07:53;;;;;;;;;;;12.30;99.90;;;;;;5050073;28;19913;-84
2021/09/06 00:10:39;;;;;;;;;;;12.20;99.90;;;;;;5048096;28;19995;-85
2021/09/06 00:13:06;;;;;;;;;;;12.20;99.90;;;;;;5049063;28;19913;-84
2021/09/06 00:15:32;;;;;;;;;;;12.20;99.90;;;;;;5030418;28;19916;-85
2021/09/06 00:17:57;;;;;;;;;;;12.10;99.90;;;;;;5022083;28;20275;-84
2021/09/06 00:20:23;;;;;;;;;;;12.20;99.90;;;;;;5051444;28;19919;-85
2021/09/06 00:22:49;;;;;;;;;;;12.20;99.90;;;;;;5042244;28;20249;-84
2021/09/06 00:25:14;;;;;;;;;;;12.10;99.90;;;;;;5051796;28;19975;-84
2021/09/06 00:27:40;;;;;;;;;;;12.10;99.90;;;;;;5039164;28;19913;-85
2021/09/06 00:30:05;;;;;;;;;;;12.10;99.90;;;;;;5057207;28;19908;-85
2021/09/06 00:32:31;;;;;;;;;;;12.10;99.90;;;;;;5062726;28;19924;-85
2021/09/06 00:34:56;;;;;;;;;;;12.10;99.90;;;;;;5036795;28;19909;-85
2021/09/06 00:37:22;;;;;;;;;;;12.10;99.90;;;;;;5064631;28;19931;-85
2021/09/06 00:39:47;;;;;;;;;;;12.00;99.90;;;;;;5062369;28;20311;-85
2021/09/06 00:42:14;;;;;;;;;;;12.00;99.90;;;;;;5056388;28;20255;-85
2021/09/06 00:44:39;;;;;;;;;;;12.00;99.90;;;;;;5028810;28;19975;-84
2021/09/06 00:47:05;;;;;;;;;;;12.00;99.90;;;;;;5033414;28;19909;-84
2021/09/06 00:49:30;;;;;;;;;;;12.00;99.90;;;;;;5053938;28;19971;-84
2021/09/06 00:51:56;;;;;;;;;;;11.90;99.90;;;;;;5061397;28;19913;-85
2021/09/06 00:54:21;;;;;;;;;;;11.90;99.90;;;;;;5050664;28;20303;-84
2021/09/06 00:56:47;;;;;;;;;;;11.90;99.90;;;;;;5056044;28;19935;-85
2021/09/06 00:59:13;;;;;;;;;;;11.90;99.90;;;;;;5039102;28;20279;-84
2021/09/06 01:01:38;;;;;;;;;;;11.90;99.90;;;;;;5061588;28;19909;-84
2021/09/06 01:04:04;;;;;;;;;;;11.80;99.90;;;;;;5057142;28;19995;-84
2021/09/06 01:06:29;;;;;;;;;;;11.80;99.90;;;;;;5051796;28;19913;-84
2021/09/06 01:08:54;;;;;;;;;;;11.80;99.90;;;;;;5061167;28;19927;-85
2021/09/06 01:11:20;;;;;;;;;;;11.70;99.90;;;;;;5042392;28;19917;-84
2021/09/06 01:13:45;;;;;;;;;;;11.80;99.90;;;;;;5050617;28;20371;-84
2021/09/06 01:16:11;;;;;;;;;;;11.70;99.90;;;;;;5036455;28;19997;-79
2021/09/06 01:18:36;;;;;;;;;;;11.70;99.90;;;;;;5053776;28;19909;-80
2021/09/06 01:21:02;;;;;;;;;;;11.70;99.90;;;;;;5022899;28;19931;-79
2021/09/06 01:23:27;;;;;;;;;;;11.70;99.90;;;;;;5048640;28;19998;-78
2021/09/06 01:25:53;;;;;;;;;;;11.70;99.90;;;;;;5059965;28;20003;-79
2021/09/06 01:28:18;;;;;;;;;;;11.60;99.90;;;;;;5059588;28;20256;-78
2021/09/06 01:30:44;;;;;;;;;;;11.60;99.90;;;;;;5054200;28;20376;-78
2021/09/06 01:33:09;;;;;;;;;;;11.60;99.90;;;;;;5057277;28;19932;-78
2021/09/06 01:35:34;;;;;;;;;;;11.50;99.90;;;;;;5059124;28;20301;-78
2021/09/06 01:38:00;;;;;;;;;;;11.50;99.90;;;;;;5040932;28;20349;-78
2021/09/06 01:40:26;;;;;;;;;;;11.50;99.90;;;;;;5041480;28;19913;-78
2021/09/06 01:42:52;;;;;;;;;;;11.50;99.90;;;;;;5056156;28;19931;-78
2021/09/06 01:45:17;;;;;;;;;;;11.40;99.90;;;;;;5048826;28;19967;-78
2021/09/06 01:47:42;;;;;;;;;;;11.40;99.90;;;;;;5037165;28;19958;-78
2021/09/06 01:50:08;;;;;;;;;;;11.50;99.90;;;;;;5059235;28;19909;-77
2021/09/06 01:52:34;;;;;;;;;;;11.40;99.90;;;;;;5055307;28;19973;-78
2021/09/06 01:54:59;;;;;;;;;;;11.40;99.90;;;;;;5059518;28;19917;-78
2021/09/06 01:57:25;;;;;;;;;;;11.40;99.90;;;;;;5060898;28;19939;-78
2021/09/06 01:59:50;;;;;;;;;;;11.40;99.90;;;;;;5062280;28;19915;-79
2021/09/06 02:02:15;;;;;;;;;;;11.30;99.90;;;;;;5054537;28;19916;-78
2021/09/06 02:04:41;;;;;;;;;;;11.30;99.90;;;;;;5055990;28;19916;-78
2021/09/06 02:07:06;;;;;;;;;;;11.30;99.90;;;;;;5059023;28;20232;-78
2021/09/06 02:09:32;;;;;;;;;;;11.30;99.90;;;;;;5041711;28;19967;-78
2021/09/06 02:11:57;;;;;;;;;;;11.20;99.90;;;;;;5056747;28;19934;-78
2021/09/06 02:14:23;;;;;;;;;;;11.20;99.90;;;;;;5059070;28;19912;-78
2021/09/06 02:16:48;;;;;;;;;;;11.30;99.90;;;;;;5059872;28;20054;-78
2021/09/06 02:19:13;;;;;;;;;;;11.20;99.90;;;;;;5056796;28;19966;-78
2021/09/06 02:21:39;;;;;;;;;;;11.30;99.90;;;;;;5054557;28;20291;-78
2021/09/06 02:24:04;;;;;;;;;;;11.20;99.90;;;;;;5057337;28;19923;-78
2021/09/06 02:26:32;;;;;;;;;;;11.20;99.90;;;;;;5058436;28;19909;-78
2021/09/06 02:28:57;;;;;;;;;;;11.20;99.90;;;;;;5057217;28;19913;-78
2021/09/06 02:31:23;;;;;;;;;;;11.20;99.90;;;;;;5057425;28;19922;-78
2021/09/06 02:33:48;;;;;;;;;;;11.10;99.90;;;;;;5056691;28;20346;-78
2021/09/06 02:36:14;;;;;;;;;;;11.10;99.90;;;;;;5039303;28;20372;-78
2021/09/06 02:38:39;;;;;;;;;;;11.10;99.90;;;;;;5037033;28;19947;-78
2021/09/06 02:41:05;;;;;;;;;;;11.00;99.90;;;;;;5062827;28;19916;-78
2021/09/06 02:43:30;;;;;;;;;;;11.00;99.90;;;;;;5044818;28;19958;-78
2021/09/06 02:45:56;;;;;;;;;;;11.00;99.90;;;;;;5039372;28;20433;-79
2021/09/06 02:48:21;;;;;;;;;;;11.10;99.90;;;;;;5057850;28;20221;-78
2021/09/06 02:50:46;;;;;;;;;;;11.10;99.90;;;;;;5039944;28;19970;-78
2021/09/06 02:53:12;;;;;;;;;;;11.10;99.90;;;;;;5054188;28;19917;-78
2021/09/06 02:55:37;;;;;;;;;;;11.10;99.90;;;;;;5052726;28;19912;-78
2021/09/06 02:58:03;;;;;;;;;;;11.00;99.90;;;;;;5056612;28;19912;-78
2021/09/06 03:00:28;;;;;;;;;;;11.00;99.90;;;;;;5033040;28;19928;-78
2021/09/06 03:02:54;;;;;;;;;;;11.00;99.90;;;;;;5039891;28;20415;-78
2021/09/06 03:05:19;;;;;;;;;;;11.00;99.90;;;;;;5056501;28;19924;-78
2021/09/06 03:07:45;;;;;;;;;;;10.90;99.90;;;;;;5058855;28;19916;-79
2021/09/06 03:10:10;;;;;;;;;;;10.90;99.90;;;;;;5056250;28;20232;-80
2021/09/06 03:12:36;;;;;;;;;;;10.90;99.90;;;;;;5047079;28;20275;-80
2021/09/06 03:15:01;;;;;;;;;;;10.90;99.90;;;;;;5056164;28;20002;-79
2021/09/06 03:17:27;;;;;;;;;;;10.80;99.90;;;;;;5064146;28;20015;-78
2021/09/06 03:19:52;;;;;;;;;;;10.90;99.90;;;;;;5056222;28;19913;-79
2021/09/06 03:22:19;;;;;;;;;;;10.80;99.90;;;;;;5026449;28;19965;-78
2021/09/06 03:24:44;;;;;;;;;;;10.80;99.90;;;;;;5054708;28;19965;-79
2021/09/06 03:27:10;;;;;;;;;;;10.80;99.90;;;;;;5056977;28;19917;-79
2021/09/06 03:29:35;;;;;;;;;;;10.80;99.90;;;;;;5057813;28;20378;-79
2021/09/06 03:32:01;;;;;;;;;;;10.80;99.90;;;;;;5036890;28;19974;-79
2021/09/06 03:34:26;;;;;;;;;;;10.80;99.90;;;;;;5057709;28;20487;-79
2021/09/06 03:36:52;;;;;;;;;;;10.70;99.90;;;;;;5039037;28;19919;-79
2021/09/06 03:39:18;;;;;;;;;;;10.70;99.90;;;;;;5060860;28;19956;-79
2021/09/06 03:41:44;;;;;;;;;;;10.70;99.90;;;;;;5041933;28;20066;-79
2021/09/06 03:44:09;;;;;;;;;;;10.70;99.90;;;;;;5060344;28;20043;-79
2021/09/06 03:46:35;;;;;;;;;;;10.70;99.90;;;;;;5060403;28;20375;-79
2021/09/06 03:49:00;;;;;;;;;;;10.70;99.90;;;;;;5041649;28;19947;-79
2021/09/06 03:51:25;;;;;;;;;;;10.70;99.90;;;;;;5060242;28;19927;-79
2021/09/06 03:53:51;;;;;;;;;;;10.60;99.90;;;;;;5041142;28;20642;-79
2021/09/06 03:56:16;;;;;;;;;;;10.60;99.90;;;;;;5061302;28;20353;-79
2021/09/06 03:58:42;;;;;;;;;;;10.60;99.90;;;;;;5044508;28;19912;-79
2021/09/06 04:01:07;;;;;;;;;;;10.60;99.90;;;;;;5037459;28;19920;-79
2021/09/06 04:03:33;;;;;;;;;;;10.60;99.90;;;;;;5059155;28;19948;-79
2021/09/06 04:05:58;;;;;;;;;;;10.60;99.90;;;;;;5040521;28;19935;-80
2021/09/06 04:08:25;;;;;;;;;;;10.60;99.90;;;;;;5038508;28;19924;-81
2021/09/06 04:10:51;;;;;;;;;;;10.60;99.90;;;;;;5030285;28;19970;-80
2021/09/06 04:13:16;;;;;;;;;;;10.60;99.90;;;;;;5059108;28;19924;-81
2021/09/06 04:15:42;;;;;;;;;;;10.60;99.90;;;;;;5036324;28;19916;-79
2021/09/06 04:18:07;;;;;;;;;;;10.60;99.90;;;;;;5052599;28;20043;-80
2021/09/06 04:20:33;;;;;;;;;;;10.60;99.90;;;;;;5040767;28;20251;-80
2021/09/06 04:22:58;;;;;;;;;;;10.60;99.90;;;;;;5055780;28;19923;-80
2021/09/06 04:25:23;;;;;;;;;;;10.60;99.90;;;;;;5056725;28;19974;-80
2021/09/06 04:27:49;;;;;;;;;;;10.60;99.90;;;;;;5060096;28;20160;-79
2021/09/06 04:30:14;;;;;;;;;;;10.50;99.90;;;;;;5042806;28;19924;-80
2021/09/06 04:32:40;;;;;;;;;;;10.60;99.90;;;;;;5056358;28;20363;-78
2021/09/06 04:35:05;;;;;;;;;;;10.70;99.90;;;;;;5059924;28;19971;-77
2021/09/06 04:37:31;;;;;;;;;;;10.70;99.90;;;;;;5042172;28;19909;-77
2021/09/06 04:39:57;;;;;;;;;;;10.60;99.90;;;;;;5060421;28;19944;-77
2021/09/06 04:42:22;;;;;;;;;;;10.60;99.90;;;;;;5059792;28;19954;-76
2021/09/06 04:44:48;;;;;;;;;;;10.50;99.90;;;;;;5040234;28;19916;-77
2021/09/06 04:47:14;;;;;;;;;;;10.50;99.90;;;;;;5059289;28;19916;-78
2021/09/06 04:49:40;;;;;;;;;;;10.50;99.90;;;;;;5059648;28;19975;-77
2021/09/06 04:52:05;;;;;;;;;;;10.50;99.90;;;;;;5055063;28;19921;-77
2021/09/06 04:54:31;;;;;;;;;;;10.50;99.90;;;;;;5057068;28;20346;-79
2021/09/06 04:56:56;;;;;;;;;;;10.50;99.90;;;;;;5039874;28;19959;-79
2021/09/06 04:59:22;;;;;;;;;;;10.50;99.90;;;;;;5058464;28;20576;-78
2021/09/06 05:01:50;;;;;;;;;;;10.40;99.90;;;;;;5059024;28;19974;-77
2021/09/06 05:04:16;;;;;;;;;;;10.40;99.90;;;;;;5057153;28;19912;-77
2021/09/06 05:06:41;;;;;;;;;;;10.50;99.90;;;;;;5058919;28;19917;-77
2021/09/06 05:09:07;;;;;;;;;;;10.40;99.90;;;;;;5056803;28;20019;-77
2021/09/06 05:11:32;;;;;;;;;;;10.50;99.90;;;;;;5053691;28;19964;-76
2021/09/06 05:13:58;;;;;;;;;;;10.50;99.90;;;;;;5053968;28;19913;-76
2021/09/06 05:16:24;;;;;;;;;;;10.50;99.90;;;;;;5038841;28;19912;-76
2021/09/06 05:18:49;;;;;;;;;;;10.50;99.90;;;;;;5056638;28;19912;-77
2021/09/06 05:21:15;;;;;;;;;;;10.60;99.90;;;;;;5056411;28;19920;-76
2021/09/06 05:23:40;;;;;;;;;;;10.60;99.90;;;;;;5056806;28;19991;-77
2021/09/06 05:26:06;;;;;;;;;;;10.60;99.90;;;;;;5056972;28;20031;-76
2021/09/06 05:28:31;;;;;;;;;;;10.60;99.90;;;;;;5059202;28;19948;-76
2021/09/06 05:30:56;;;;;;;;;;;10.70;99.90;;;;;;5040496;28;19912;-77
2021/09/06 05:33:22;;;;;;;;;;;10.70;99.90;;;;;;5058832;28;19908;-77
2021/09/06 05:35:47;;;;;;;;;;;10.70;99.90;;;;;;5058562;28;20345;-76
2021/09/06 05:38:13;;;;;;;;;;;10.70;99.90;;;;;;5040739;28;19912;-76
2021/09/06 05:40:38;;;;;;;;;;;10.70;99.90;;;;;;5041132;28;20602;-77
2021/09/06 05:43:04;;;;;;;;;;;10.80;99.90;;;;;;5056795;28;20328;-76
2021/09/06 05:45:30;;;;;;;;;;;10.90;99.90;;;;;;5058443;28;19932;-77
2021/09/06 05:47:55;;;;;;;;;;;10.90;99.90;;;;;;5058523;28;20015;-77
2021/09/06 05:50:21;;;;;;;;;;;11.00;99.90;;;;;;5059574;28;20000;-76
2021/09/06 05:52:46;;;;;;;;;;;11.10;99.90;;;;;;5056696;28;19916;-77
2021/09/06 05:55:12;;;;;;;;;;;11.10;99.90;;;;;;5053575;28;20450;-77
2021/09/06 05:57:38;;;;;;;;;;;11.20;99.90;;;;;;5052053;28;20007;-77
2021/09/06 06:00:05;;;;;;;;;;;11.10;99.90;;;;;;5048579;28;19913;-77
2021/09/06 06:02:30;;;;;;;;;;;11.10;99.90;;;;;;5053861;28;20434;-77
2021/09/06 06:04:55;;;;;;;;;;;11.10;99.90;;;;;;5057689;28;20188;-78
2021/09/06 06:07:21;;;;;;;;;;;11.20;99.90;;;;;;5036807;28;19917;-77
2021/09/06 06:09:48;;;;;;;;;;;11.20;99.90;;;;;;5022824;28;19927;-75
2021/09/06 06:12:14;;;;;;;;;;;11.30;99.90;;;;;;5057789;28;20379;-74
2021/09/06 06:14:39;;;;;;;;;;;11.30;99.90;;;;;;5039105;28;19916;-75
2021/09/06 06:17:05;;;;;;;;;;;11.40;99.90;;;;;;5054274;28;20490;-73
2021/09/06 06:19:31;;;;;;;;;;;11.40;99.90;;;;;;5052277;28;20390;-75
2021/09/06 06:21:56;;;;;;;;;;;11.40;99.90;;;;;;5028689;28;19917;-75
2021/09/06 06:24:22;;;;;;;;;;;11.50;99.90;;;;;;5053105;28;19923;-75
2021/09/06 06:26:47;;;;;;;;;;;11.60;99.90;;;;;;5056981;28;19909;-75
2021/09/06 06:29:12;;;;;;;;;;;11.70;99.90;;;;;;5039696;28;20034;-75
2021/09/06 06:31:38;;;;;;;;;;;11.70;99.90;;;;;;5057745;28;19916;-75
2021/09/06 06:34:03;;;;;;;;;;;11.80;99.90;;;;;;5054854;28;20285;-75
2021/09/06 06:36:29;;;;;;;;;;;11.90;99.90;;;;;;5055550;28;19912;-76
2021/09/06 06:38:55;;;;;;;;;;;11.90;99.90;;;;;;5057335;28;19943;-75
2021/09/06 06:41:20;;;;;;;;;;;12.00;99.90;;;;;;5054177;28;19995;-75
2021/09/06 06:43:46;;;;;;;;;;;12.10;99.90;;;;;;5056226;28;19920;-74
2021/09/06 06:46:11;;;;;;;;;;;12.10;99.90;;;;;;5055918;28;19936;-75
2021/09/06 06:48:37;;;;;;;;;;;12.20;99.90;;;;;;5053890;28;20479;-74
2021/09/06 06:51:02;;;;;;;;;;;12.30;99.90;;;;;;5033952;28;19913;-74
2021/09/06 06:53:28;;;;;;;;;;;12.30;99.90;;;;;;5055025;28;19922;-74
2021/09/06 06:55:53;;;;;;;;;;;12.40;99.90;;;;;;5051949;28;20300;-74
2021/09/06 06:58:19;;;;;;;;;;;12.50;99.90;;;;;;5037188;28;19909;-75
2021/09/06 07:00:44;;;;;;;;;;;12.60;99.90;;;;;;5058015;28;19913;-75
2021/09/06 07:03:10;;;;;;;;;;;12.60;99.90;;;;;;5033039;28;19921;-76
2021/09/06 07:05:35;;;;;;;;;;;12.80;99.90;;;;;;5036688;28;20220;-76
2021/09/06 07:08:01;;;;;;;;;;;12.80;99.90;;;;;;5035852;28;19917;-76
2021/09/06 07:10:26;;;;;;;;;;;12.90;99.90;;;;;;5053840;28;19917;-75
2021/09/06 07:12:51;;;;;;;;;;;12.90;99.90;;;;;;5051151;28;20640;-75
2021/09/06 07:15:17;;;;;;;;;;;13.00;99.90;;;;;;5039879;28;20325;-76
2021/09/06 07:17:42;;;;;;;;;;;13.00;99.90;;;;;;5058483;28;19915;-74
2021/09/06 07:20:08;;;;;;;;;;;13.00;99.90;;;;;;5039715;28;19916;-74
2021/09/06 07:22:34;;;;;;;;;;;13.10;99.90;;;;;;5059748;28;19908;-75
2021/09/06 07:24:59;;;;;;;;;;;13.20;99.90;;;;;;5057484;28;19955;-75
2021/09/06 07:27:24;;;;;;;;;;;13.30;99.90;;;;;;5057825;28;19924;-73
2021/09/06 07:29:50;;;;;;;;;;;13.50;99.90;;;;;;5055188;28;19927;-75
2021/09/06 07:32:15;;;;;;;;;;;13.50;99.90;;;;;;5056393;28;19924;-76
2021/09/06 07:34:41;;;;;;;;;;;13.60;99.90;;;;;;5061435;28;19923;-76
2021/09/06 07:37:07;;;;;;;;;;;13.70;99.90;;;;;;5061115;28;19912;-75
2021/09/06 07:39:33;;;;;;;;;;;13.80;99.90;;;;;;5060704;28;19916;-74
2021/09/06 07:41:59;;;;;;;;;;;13.90;99.90;;;;;;5042509;28;20382;-76
2021/09/06 07:44:25;;;;;;;;;;;13.90;99.90;;;;;;5059535;28;19912;-76
2021/09/06 07:46:53;;;;;;;;;;;14.10;99.90;;;;;;5060273;28;19919;-75
2021/09/06 07:49:18;;;;;;;;;;;14.20;99.90;;;;;;5057817;28;20355;-75
2021/09/06 07:51:51;;;;;;;;;;;14.30;99.90;;;;;;5058121;28;19922;-76
2021/09/06 07:54:17;;;;;;;;;;;14.40;99.90;;;;;;5057083;28;20019;-76
2021/09/06 07:56:45;;;;;;;;;;;14.50;99.90;;;;;;5041252;28;20439;-76
2021/09/06 07:59:11;;;;;;;;;;;14.60;99.90;;;;;;5059120;28;20303;-75
2021/09/06 08:01:36;;;;;;;;;;;14.80;99.90;;;;;;5041061;28;19908;-75
2021/09/06 08:04:02;;;;;;;;;;;14.90;99.80;;;;;;5056381;28;20379;-76
2021/09/06 08:06:27;;;;;;;;;;;15.00;99.80;;;;;;5059406;28;19916;-76
2021/09/06 08:08:53;;;;;;;;;;;15.10;99.70;;;;;;5058086;28;19921;-76
2021/09/06 08:11:18;;;;;;;;;;;15.10;99.70;;;;;;5058492;28;19916;-76
2021/09/06 08:13:43;;;;;;;;;;;15.20;99.60;;;;;;5041576;28;19913;-76
2021/09/06 08:16:09;;;;;;;;;;;15.30;99.50;;;;;;5057564;28;19921;-76
2021/09/06 08:18:34;;;;;;;;;;;15.50;99.50;;;;;;5059864;28;19909;-76
2021/09/06 08:21:00;;;;;;;;;;;15.60;99.20;;;;;;5038568;28;19956;-75
2021/09/06 08:23:25;;;;;;;;;;;15.70;99.30;;;;;;5056685;28;20015;-76
2021/09/06 08:25:51;;;;;;;;;;;15.70;99.10;;;;;;5059581;28;19948;-75
2021/09/06 08:28:16;;;;;;;;;;;15.80;99.20;;;;;;5041669;28;19939;-75
2021/09/06 08:30:41;;;;;;;;;;;15.80;98.70;;;;;;5057839;28;19944;-76
2021/09/06 08:33:07;;;;;;;;;;;15.70;98.80;;;;;;5055794;28;20283;-76
2021/09/06 08:35:32;;;;;;;;;;;15.80;99.00;;;;;;5039344;28;19913;-76
2021/09/06 08:37:58;;;;;;;;;;;16.00;99.00;;;;;;5059070;28;20248;-76
2021/09/06 08:40:23;;;;;;;;;;;16.00;98.60;;;;;;5060250;28;19915;-76
2021/09/06 08:42:49;;;;;;;;;;;16.10;98.60;;;;;;5057378;28;19923;-76
2021/09/06 08:45:14;;;;;;;;;;;16.10;98.60;;;;;;5025590;28;19999;-73
2021/09/06 08:47:40;;;;;;;;;;;16.10;98.60;;;;;;5059047;28;20408;-73
2021/09/06 08:50:08;;;;;;;;;;;16.30;98.60;;;;;;5054351;28;19944;-74
2021/09/06 08:52:33;;;;;;;;;;;16.40;98.60;;;;;;5055385;28;20387;-75
2021/09/06 08:54:59;;;;;;;;;;;16.60;98.50;;;;;;5041356;28;19917;-74
2021/09/06 08:57:24;;;;;;;;;;;16.70;98.20;;;;;;5040849;28;19995;-75
2021/09/06 08:59:57;;;;;;;;;;;16.70;98.10;;;;;;5059040;28;19920;-75
2021/09/06 09:02:23;;;;;;;;;;;16.90;98.30;;;;;;5057155;28;19948;-71
2021/09/06 09:04:56;;;;;;;;;;;17.10;98.20;;;;;;5057682;28;19967;-74
2021/09/06 09:07:24;;;;;;;;;;;17.20;97.90;;;;;;5055542;28;19916;-74
2021/09/06 09:09:49;;;;;;;;;;;17.40;97.60;;;;;;5058134;28;19966;-75
2021/09/06 09:12:16;;;;;;;;;;;17.40;97.20;;;;;;5037774;28;19955;-74
2021/09/06 09:14:56;;;;;;;;;;;17.40;97.20;;;;;;5056140;28;19928;-73
2021/09/06 09:17:22;;;;;;;;;;;17.40;97.10;;;;;;5057757;28;20384;-75
2021/09/06 09:19:47;;;;;;;;;;;17.40;96.60;;;;;;5038948;28;20374;-74
2021/09/06 09:22:14;;;;;;;;;;;17.40;96.90;;;;;;5056918;28;19925;-75
2021/09/06 09:24:40;;;;;;;;;;;17.50;96.70;;;;;;5038438;28;19919;-74
2021/09/06 09:27:12;;;;;;;;;;;17.50;96.60;;;;;;5059173;28;20374;-75
2021/09/06 09:29:39;;;;;;;;;;;17.50;96.70;;;;;;5056714;28;19956;-75
2021/09/06 09:32:06;;;;;;;;;;;17.60;96.80;;;;;;5038223;28;20326;-76
2021/09/06 09:34:35;;;;;;;;;;;17.70;96.30;;;;;;5058331;28;20375;-76
2021/09/06 09:37:01;;;;;;;;;;;17.70;96.40;;;;;;5057742;28;19920;-75
2021/09/06 09:39:26;;;;;;;;;;;18.00;96.50;;;;;;5056234;28;19924;-76
2021/09/06 09:42:01;;;;;;;;;;;18.10;96.30;;;;;;5040125;28;20328;-76
2021/09/06 09:44:26;;;;;;;;;;;18.20;95.90;;;;;;5057925;28;20000;-75
2021/09/06 09:46:59;;;;;;;;;;;18.20;95.50;;;;;;5058981;28;19935;-75
2021/09/06 09:49:25;;;;;;;;;;;18.20;95.70;;;;;;5057012;28;19919;-75
2021/09/06 09:51:51;;;;;;;;;;;18.20;95.70;;;;;;5057640;28;19920;-75
2021/09/06 09:54:17;;;;;;;;;;;18.30;95.90;;;;;;5056965;28;20318;-76
2021/09/06 09:56:43;;;;;;;;;;;18.30;95.60;;;;;;5058391;28;19913;-74
2021/09/06 09:59:10;;;;;;;;;;;18.30;95.70;;;;;;5054845;28;19921;-74
2021/09/06 10:01:39;;;;;;;;;;;18.40;95.20;;;;;;5056227;28;19913;-73
2021/09/06 10:04:05;;;;;;;;;;;18.50;95.30;;;;;;5055627;28;19921;-74
2021/09/06 10:06:32;;;;;;;;;;;18.60;95.20;;;;;;5058615;28;20040;-75
2021/09/06 10:08:57;;;;;;;;;;;18.60;95.10;;;;;;5055405;28;20740;-76
2021/09/06 10:11:39;;;;;;;;;;;18.70;95.10;;;;;;5039166;28;20047;-74
2021/09/06 10:14:16;;;;;;;;;;;18.90;95.30;;;;;;5053905;28;20020;-74
2021/09/06 10:16:41;;;;;;;;;;;19.10;93.80;;;;;;5037577;28;19916;-74
2021/09/06 10:19:08;;;;;;;;;;;19.10;94.10;;;;;;5056184;28;19923;-74
2021/09/06 10:21:46;;;;;;;;;;;19.20;94.20;;;;;;5056421;28;19912;-74
2021/09/06 10:24:13;;;;;;;;;;;19.20;93.20;;;;;;5056565;28;20173;-74
2021/09/06 10:26:38;;;;;;;;;;;19.20;93.50;;;;;;5039901;28;19915;-74
2021/09/06 10:29:20;;;;;;;;;;;19.30;93.40;;;;;;5057647;28;19999;-73
2021/09/06 10:31:57;;;;;;;;;;;19.40;93.30;;;;;;5056669;28;20031;-74
2021/09/06 10:34:23;;;;;;;;;;;19.40;93.50;;;;;;5055885;28;19939;-74
2021/09/06 10:36:55;;;;;;;;;;;19.40;92.30;;;;;;5058367;28;20309;-74
2021/09/06 10:39:21;;;;;;;;;;;19.40;92.70;;;;;;5057861;28;19928;-74
2021/09/06 10:41:48;;;;;;;;;;;19.40;92.90;;;;;;5058253;28;19983;-74
2021/09/06 10:44:13;;;;;;;;;;;19.50;92.40;;;;;;5057048;28;19923;-73
2021/09/06 10:46:39;;;;;;;;;;;19.60;92.60;;;;;;5054500;28;20015;-74
2021/09/06 10:49:05;;;;;;;;;;;19.60;92.50;;;;;;5054545;28;19916;-73
2021/09/06 10:51:34;;;;;;;;;;;19.80;92.90;;;;;;5055107;28;19921;-73
2021/09/06 10:54:01;;;;;;;;;;;20.00;91.80;;;;;;5053279;28;19967;-73
2021/09/06 10:56:28;;;;;;;;;;;20.20;92.10;;;;;;5054340;28;19945;-73
2021/09/06 10:58:54;;;;;;;;;;;20.30;92.00;;;;;;5054962;28;20270;-74
2021/09/06 11:01:19;;;;;;;;;;;20.40;91.40;;;;;;5037169;28;20023;-73
2021/09/06 11:03:46;;;;;;;;;;;20.60;92.00;;;;;;5054670;28;19917;-74
2021/09/06 11:06:11;;;;;;;;;;;20.80;91.30;;;;;;5053925;28;20398;-72
2021/09/06 11:08:37;;;;;;;;;;;20.80;91.10;;;;;;5056566;28;19917;-71
2021/09/06 11:11:04;;;;;;;;;;;20.80;89.50;;;;;;5052852;28;20436;-72
2021/09/06 11:13:33;;;;;;;;;;;20.70;89.70;;;;;;5055020;28;19916;-72
2021/09/06 11:15:59;;;;;;;;;;;20.60;90.10;;;;;;5052426;28;19936;-72
2021/09/06 11:18:29;;;;;;;;;;;20.50;90.20;;;;;;5057285;28;20367;-72
2021/09/06 11:20:54;;;;;;;;;;;20.70;90.70;;;;;;5056305;28;20209;-72
2021/09/06 11:23:29;;;;;;;;;;;20.90;90.70;;;;;;5053155;28;19928;-72
2021/09/06 11:25:54;;;;;;;;;;;21.10;90.70;;;;;;5038002;28;19917;-72
2021/09/06 11:28:20;;;;;;;;;;;21.20;90.60;;;;;;5056099;28;19923;-72
2021/09/06 11:30:46;;;;;;;;;;;21.20;89.80;;;;;;5052182;28;19928;-72
2021/09/06 11:33:12;;;;;;;;;;;21.10;90.00;;;;;;5036409;28;19921;-72
2021/09/06 11:35:38;;;;;;;;;;;21.10;90.20;;;;;;5036206;28;19919;-73
2021/09/06 11:38:04;;;;;;;;;;;21.10;89.90;;;;;;5054680;28;19916;-72
2021/09/06 11:40:30;;;;;;;;;;;21.00;90.10;;;;;;5054118;28;19916;-73
2021/09/06 11:42:58;;;;;;;;;;;21.00;88.80;;;;;;5055304;28;19917;-75
2021/09/06 11:45:24;;;;;;;;;;;21.00;88.00;;;;;;5052009;28;20207;-73
2021/09/06 11:47:50;;;;;;;;;;;20.90;88.20;;;;;;5055070;28;19923;-73
2021/09/06 11:50:16;;;;;;;;;;;20.90;88.80;;;;;;5037009;28;19913;-77
2021/09/06 11:52:44;;;;;;;;;;;21.00;87.80;;;;;;5056837;28;19924;-74
2021/09/06 11:55:11;;;;;;;;;;;21.00;87.00;;;;;;5056057;28;19917;-75
2021/09/06 11:57:36;;;;;;;;;;;21.00;86.90;;;;;;5055801;28;19982;-75
2021/09/06 12:00:03;;;;;;;;;;;21.00;86.60;;;;;;5054709;28;20061;-74
2021/09/06 12:02:28;;;;;;;;;;;21.10;86.90;;;;;;5051699;28;19974;-73
2021/09/06 12:05:04;;;;;;;;;;;21.10;87.00;;;;;;5057831;28;20357;-75
2021/09/06 12:07:29;;;;;;;;;;;21.20;87.40;;;;;;5060713;28;19912;-74
2021/09/06 12:09:55;;;;;;;;;;;21.20;87.10;;;;;;5136378;22;20006;-74
2021/09/06 12:12:21;;;;;;;;;;;21.20;87.40;;;;;;5086298;28;19920;-73
2021/09/06 12:14:47;;;;;;;;;;;21.20;86.80;;;;;;5089717;28;19951;-73
2021/09/06 12:17:13;;;;;;;;;;;21.20;86.70;;;;;;5088274;28;19915;-76
2021/09/06 12:19:40;;;;;;;;;;;21.30;85.70;;;;;;5071774;28;20365;-73
2021/09/06 12:22:13;;;;;;;;;;;21.30;85.70;;;;;;5061204;28;19913;-73
2021/09/06 12:24:39;;;;;;;;;;;21.40;86.50;;;;;;5059957;28;19927;-74
2021/09/06 12:27:12;;;;;;;;;;;21.40;85.50;;;;;;5061146;28;19913;-75
2021/09/06 12:29:37;;;;;;;;;;;21.40;86.80;;;;;;5076976;28;20453;-74
2021/09/06 12:32:03;;;;;;;;;;;21.60;86.60;;;;;;5059138;28;19938;-74
2021/09/06 12:34:30;;;;;;;;;;;21.60;85.80;;;;;;5060206;28;19928;-74
2021/09/06 12:36:55;;;;;;;;;;;21.70;84.30;;;;;;5060674;28;19917;-75
2021/09/06 12:39:21;;;;;;;;;;;21.70;84.80;;;;;;5061438;28;19912;-74
2021/09/06 12:41:46;;;;;;;;;;;21.80;83.70;;;;;;5059370;28;19928;-74
2021/09/06 12:44:11;;;;;;;;;;;21.70;83.50;;;;;;5060651;28;19950;-76
2021/09/06 12:46:37;;;;;;;;;;;21.80;82.70;;;;;;5060560;28;20325;-75
2021/09/06 12:49:02;;;;;;;;;;;21.80;82.40;;;;;;5060093;28;19920;-74
2021/09/06 12:51:28;;;;;;;;;;;22.00;83.30;;;;;;5059269;28;19924;-75
2021/09/06 12:53:53;;;;;;;;;;;22.10;81.60;;;;;;5059136;28;20399;-75
2021/09/06 12:56:21;;;;;;;;;;;22.10;80.20;;;;;;5061215;28;19966;-75
2021/09/06 12:58:49;;;;;;;;;;;22.10;78.60;;;;;;5059872;28;19916;-75
2021/09/06 13:01:14;;;;;;;;;;;22.10;79.70;;;;;;5059783;28;19967;-77
2021/09/06 13:03:40;;;;;;;;;;;22.20;80.40;;;;;;5058997;28;19960;-76
2021/09/06 13:06:05;;;;;;;;;;;22.30;81.40;;;;;;5059318;28;20038;-75
2021/09/06 13:08:31;;;;;;;;;;;22.40;80.40;;;;;;5059164;28;19912;-75
2021/09/06 13:10:57;;;;;;;;;;;22.50;78.50;;;;;;5059400;28;19943;-75
2021/09/06 13:13:22;;;;;;;;;;;22.60;77.90;;;;;;5059973;28;19917;-75
2021/09/06 13:15:48;;;;;;;;;;;22.60;73.30;;;;;;5076050;28;19932;-76
2021/09/06 13:18:14;;;;;;;;;;;22.50;75.00;;;;;;5059759;28;19916;-75
2021/09/06 13:20:40;;;;;;;;;;;22.40;74.90;;;;;;5060612;28;19920;-75
2021/09/06 13:23:09;;;;;;;;;;;22.30;74.60;;;;;;5058729;28;19917;-76
2021/09/06 13:25:34;;;;;;;;;;;22.20;71.80;;;;;;5059125;28;20363;-74
2021/09/06 13:28:00;;;;;;;;;;;22.10;70.50;;;;;;5060328;28;19917;-75
2021/09/06 13:30:25;;;;;;;;;;;22.00;70.80;;;;;;5058345;28;20408;-75
2021/09/06 13:32:50;;;;;;;;;;;22.00;71.20;;;;;;5059184;28;19931;-75
2021/09/06 13:35:16;;;;;;;;;;;21.90;70.00;;;;;;5059914;28;19921;-74
2021/09/06 13:37:41;;;;;;;;;;;21.90;71.00;;;;;;5060543;28;19917;-75
2021/09/06 13:40:07;;;;;;;;;;;21.90;70.50;;;;;;5059369;28;20034;-75
2021/09/06 13:42:32;;;;;;;;;;;21.90;71.40;;;;;;5059306;28;20367;-74
2021/09/06 13:44:58;;;;;;;;;;;22.00;71.00;;;;;;5060169;28;20372;-75
2021/09/06 13:47:25;;;;;;;;;;;22.00;70.80;;;;;;5059893;28;19979;-75
2021/09/06 13:49:51;;;;;;;;;;;21.90;71.30;;;;;;5059007;28;20003;-75
2021/09/06 13:52:17;;;;;;;;;;;21.90;70.70;;;;;;5059837;28;19920;-75
2021/09/06 13:54:42;;;;;;;;;;;21.90;70.40;;;;;;5058963;28;19912;-75
2021/09/06 13:57:11;;;;;;;;;;;21.90;68.50;;;;;;5074277;28;19939;-74
2021/09/06 13:59:36;;;;;;;;;;;21.90;69.00;;;;;;5059044;28;19922;-76
2021/09/06 14:02:02;;;;;;;;;;;21.90;70.00;;;;;;5057724;28;20002;-75
2021/09/06 14:04:27;;;;;;;;;;;21.90;70.20;;;;;;5059450;28;19912;-72
2021/09/06 14:06:53;;;;;;;;;;;22.10;70.70;;;;;;5058770;28;19912;-71
2021/09/06 14:09:19;;;;;;;;;;;22.20;70.90;;;;;;5074270;28;19920;-71